sensor_id;sensor_type;location;lat;lon;timestamp;P1;durP1;ratioP1;P2;durP2;ratioP2
48795;SDS011;34607;48.520;-1.330;2023-02-15T08:10:35;23.58;;;14.63;;
48795;SDS011;34607;48.520;-1.330;2023-02-15T08:13:20;21.48;;;13.93;;
48795;SDS011;34607;48.520;-1.330;2023-02-15T08:15:47;18.40;;;12.85;;
48795;SDS011;34607;48.520;-1.330;2023-02-15T08:18:15;19.60;;;12.85;;
48795;SDS011;34607;48.520;-1.330;2023-02-15T08:20:42;20.58;;;12.20;;
48795;SDS011;34607;48.520;-1.330;2023-02-15T08:23:14;18.42;;;13.25;;
48795;SDS011;34607;48.520;-1.330;2023-02-15T08:25:43;18.70;;;13.73;;
48795;SDS011;34607;48.520;-1.330;2023-02-15T08:28:10;17.65;;;13.05;;
48795;SDS011;34607;48.520;-1.330;2023-02-15T08:33:45;21.63;;;15.80;;
48795;SDS011;34607;48.520;-1.330;2023-02-15T08:36:15;24.08;;;16.45;;
48795;SDS011;34607;48.520;-1.330;2023-02-15T08:38:43;21.65;;;16.08;;
48795;SDS011;34607;48.520;-1.330;2023-02-15T08:41:13;27.17;;;15.73;;
48795;SDS011;34607;48.520;-1.330;2023-02-15T08:43:42;20.73;;;14.57;;
48795;SDS011;34607;48.520;-1.330;2023-02-15T08:46:10;19.73;;;14.00;;
48795;SDS011;34607;48.520;-1.330;2023-02-15T08:48:38;21.67;;;14.43;;
48795;SDS011;34607;48.520;-1.330;2023-02-15T08:54:04;22.17;;;14.05;;
48795;SDS011;34607;48.520;-1.330;2023-02-15T08:56:34;18.58;;;13.55;;
48795;SDS011;34607;48.520;-1.330;2023-02-15T08:59:03;20.05;;;15.30;;
48795;SDS011;34607;48.520;-1.330;2023-02-15T09:01:31;21.80;;;14.65;;
48795;SDS011;34607;48.520;-1.330;2023-02-15T09:04:00;22.65;;;14.75;;
48795;SDS011;34607;48.520;-1.330;2023-02-15T09:06:30;22.15;;;14.43;;
48795;SDS011;34607;48.520;-1.330;2023-02-15T09:12:53;20.08;;;15.05;;
48795;SDS011;34607;48.520;-1.330;2023-02-15T09:15:21;20.17;;;15.23;;
48795;SDS011;34607;48.520;-1.330;2023-02-15T09:17:48;20.35;;;15.63;;
48795;SDS011;34607;48.520;-1.330;2023-02-15T09:20:15;21.02;;;15.05;;
48795;SDS011;34607;48.520;-1.330;2023-02-15T09:22:42;21.98;;;15.13;;
48795;SDS011;34607;48.520;-1.330;2023-02-15T09:25:10;19.17;;;14.25;;
48795;SDS011;34607;48.520;-1.330;2023-02-15T09:27:38;21.77;;;14.45;;
48795;SDS011;34607;48.520;-1.330;2023-02-15T09:30:08;19.67;;;15.10;;
48795;SDS011;34607;48.520;-1.330;2023-02-15T09:32:36;21.38;;;15.73;;
48795;SDS011;34607;48.520;-1.330;2023-02-15T09:35:03;21.02;;;16.30;;
48795;SDS011;34607;48.520;-1.330;2023-02-15T09:37:30;18.92;;;14.68;;
48795;SDS011;34607;48.520;-1.330;2023-02-15T09:39:58;20.30;;;15.52;;
48795;SDS011;34607;48.520;-1.330;2023-02-15T09:42:29;19.40;;;15.18;;
48795;SDS011;34607;48.520;-1.330;2023-02-15T09:45:18;21.80;;;15.02;;
48795;SDS011;34607;48.520;-1.330;2023-02-15T09:50:55;18.95;;;15.18;;
48795;SDS011;34607;48.520;-1.330;2023-02-15T09:53:45;18.55;;;15.75;;
48795;SDS011;34607;48.520;-1.330;2023-02-15T09:56:23;21.45;;;15.55;;
48795;SDS011;34607;48.520;-1.330;2023-02-15T09:59:04;22.02;;;15.07;;
48795;SDS011;34607;48.520;-1.330;2023-02-15T10:01:41;16.13;;;14.43;;
48795;SDS011;34607;48.520;-1.330;2023-02-15T10:04:21;20.23;;;16.73;;
48795;SDS011;34607;48.520;-1.330;2023-02-15T10:07:03;23.77;;;15.80;;
48795;SDS011;34607;48.520;-1.330;2023-02-15T10:09:45;19.52;;;15.45;;
48795;SDS011;34607;48.520;-1.330;2023-02-15T10:12:24;17.75;;;15.85;;
48795;SDS011;34607;48.520;-1.330;2023-02-15T10:15:07;19.50;;;16.37;;
48795;SDS011;34607;48.520;-1.330;2023-02-15T10:17:47;20.58;;;15.88;;
48795;SDS011;34607;48.520;-1.330;2023-02-15T10:20:28;20.98;;;16.42;;
48795;SDS011;34607;48.520;-1.330;2023-02-15T10:23:08;20.80;;;16.70;;
48795;SDS011;34607;48.520;-1.330;2023-02-15T10:25:51;18.83;;;16.25;;
48795;SDS011;34607;48.520;-1.330;2023-02-15T10:28:28;19.52;;;16.92;;
48795;SDS011;34607;48.520;-1.330;2023-02-15T10:31:02;19.38;;;16.08;;
48795;SDS011;34607;48.520;-1.330;2023-02-15T10:33:40;19.90;;;16.02;;
48795;SDS011;34607;48.520;-1.330;2023-02-15T10:39:00;24.08;;;17.35;;
48795;SDS011;34607;48.520;-1.330;2023-02-15T10:41:36;24.30;;;17.05;;
48795;SDS011;34607;48.520;-1.330;2023-02-15T10:44:22;25.02;;;16.17;;
48795;SDS011;34607;48.520;-1.330;2023-02-15T10:47:22;19.13;;;16.25;;
48795;SDS011;34607;48.520;-1.330;2023-02-15T10:50:10;20.38;;;16.38;;
48795;SDS011;34607;48.520;-1.330;2023-02-15T10:52:54;19.23;;;16.30;;
48795;SDS011;34607;48.520;-1.330;2023-02-15T10:55:40;21.08;;;17.65;;
48795;SDS011;34607;48.520;-1.330;2023-02-15T10:58:19;19.88;;;16.45;;
48795;SDS011;34607;48.520;-1.330;2023-02-15T11:00:58;19.98;;;17.27;;
48795;SDS011;34607;48.520;-1.330;2023-02-15T11:03:36;19.30;;;16.58;;
48795;SDS011;34607;48.520;-1.330;2023-02-15T11:06:14;20.40;;;16.85;;
48795;SDS011;34607;48.520;-1.330;2023-02-15T11:08:45;22.40;;;17.45;;
48795;SDS011;34607;48.520;-1.330;2023-02-15T11:11:15;20.23;;;17.08;;
48795;SDS011;34607;48.520;-1.330;2023-02-15T11:13:48;22.13;;;18.05;;
48795;SDS011;34607;48.520;-1.330;2023-02-15T11:16:18;21.85;;;17.25;;
48795;SDS011;34607;48.520;-1.330;2023-02-15T11:18:51;21.50;;;16.92;;
48795;SDS011;34607;48.520;-1.330;2023-02-15T11:21:24;20.75;;;17.17;;
48795;SDS011;34607;48.520;-1.330;2023-02-15T11:23:54;22.17;;;17.70;;
48795;SDS011;34607;48.520;-1.330;2023-02-15T11:26:24;21.52;;;17.98;;
48795;SDS011;34607;48.520;-1.330;2023-02-15T11:28:57;21.25;;;17.73;;
48795;SDS011;34607;48.520;-1.330;2023-02-15T11:31:30;20.67;;;18.52;;
48795;SDS011;34607;48.520;-1.330;2023-02-15T11:34:12;23.95;;;19.48;;
48795;SDS011;34607;48.520;-1.330;2023-02-15T11:36:46;22.85;;;18.38;;
48795;SDS011;34607;48.520;-1.330;2023-02-15T11:39:17;20.55;;;18.35;;
48795;SDS011;34607;48.520;-1.330;2023-02-15T11:41:47;21.33;;;17.77;;
48795;SDS011;34607;48.520;-1.330;2023-02-15T11:44:20;21.90;;;19.60;;
48795;SDS011;34607;48.520;-1.330;2023-02-15T11:46:51;20.58;;;18.48;;
48795;SDS011;34607;48.520;-1.330;2023-02-15T11:49:23;23.42;;;17.75;;
48795;SDS011;34607;48.520;-1.330;2023-02-15T11:51:57;23.52;;;19.25;;
48795;SDS011;34607;48.520;-1.330;2023-02-15T11:54:27;24.25;;;18.95;;
48795;SDS011;34607;48.520;-1.330;2023-02-15T11:56:58;21.02;;;18.75;;
48795;SDS011;34607;48.520;-1.330;2023-02-15T11:59:31;23.35;;;19.50;;
48795;SDS011;34607;48.520;-1.330;2023-02-15T12:02:02;23.02;;;20.00;;
48795;SDS011;34607;48.520;-1.330;2023-02-15T12:04:29;24.35;;;18.80;;
48795;SDS011;34607;48.520;-1.330;2023-02-15T12:07:04;28.15;;;23.50;;
48795;SDS011;34607;48.520;-1.330;2023-02-15T12:09:42;24.25;;;20.45;;
48795;SDS011;34607;48.520;-1.330;2023-02-15T12:12:20;25.05;;;21.73;;
48795;SDS011;34607;48.520;-1.330;2023-02-15T12:14:50;25.92;;;20.13;;
48795;SDS011;34607;48.520;-1.330;2023-02-15T12:17:18;21.70;;;19.45;;
48795;SDS011;34607;48.520;-1.330;2023-02-15T12:19:48;25.45;;;21.23;;
48795;SDS011;34607;48.520;-1.330;2023-02-15T12:22:21;24.73;;;19.98;;
48795;SDS011;34607;48.520;-1.330;2023-02-15T12:24:50;24.48;;;20.23;;
48795;SDS011;34607;48.520;-1.330;2023-02-15T12:27:21;22.75;;;20.27;;
48795;SDS011;34607;48.520;-1.330;2023-02-15T12:29:52;25.25;;;22.55;;
48795;SDS011;34607;48.520;-1.330;2023-02-15T12:32:24;25.83;;;23.10;;
48795;SDS011;34607;48.520;-1.330;2023-02-15T12:34:55;24.90;;;21.52;;
48795;SDS011;34607;48.520;-1.330;2023-02-15T12:37:28;22.23;;;19.20;;
48795;SDS011;34607;48.520;-1.330;2023-02-15T12:40:00;22.55;;;20.15;;
48795;SDS011;34607;48.520;-1.330;2023-02-15T12:42:44;22.92;;;20.00;;
48795;SDS011;34607;48.520;-1.330;2023-02-15T12:45:22;23.52;;;19.98;;
48795;SDS011;34607;48.520;-1.330;2023-02-15T12:48:13;24.50;;;21.90;;
48795;SDS011;34607;48.520;-1.330;2023-02-15T12:50:42;23.63;;;20.77;;
48795;SDS011;34607;48.520;-1.330;2023-02-15T12:53:14;27.38;;;21.08;;
48795;SDS011;34607;48.520;-1.330;2023-02-15T12:55:52;26.17;;;20.67;;
48795;SDS011;34607;48.520;-1.330;2023-02-15T12:58:21;25.58;;;20.20;;
48795;SDS011;34607;48.520;-1.330;2023-02-15T13:03:50;21.92;;;19.15;;
48795;SDS011;34607;48.520;-1.330;2023-02-15T13:06:22;21.75;;;18.65;;
48795;SDS011;34607;48.520;-1.330;2023-02-15T13:08:52;21.08;;;18.88;;
48795;SDS011;34607;48.520;-1.330;2023-02-15T13:11:21;22.92;;;20.15;;
48795;SDS011;34607;48.520;-1.330;2023-02-15T13:13:53;24.23;;;20.25;;
48795;SDS011;34607;48.520;-1.330;2023-02-15T13:16:25;22.98;;;20.40;;
48795;SDS011;34607;48.520;-1.330;2023-02-15T13:18:56;24.33;;;20.33;;
48795;SDS011;34607;48.520;-1.330;2023-02-15T13:21:26;23.40;;;20.85;;
48795;SDS011;34607;48.520;-1.330;2023-02-15T13:24:00;24.13;;;20.80;;
48795;SDS011;34607;48.520;-1.330;2023-02-15T13:26:32;24.02;;;21.48;;
48795;SDS011;34607;48.520;-1.330;2023-02-15T13:29:01;27.55;;;20.90;;
48795;SDS011;34607;48.520;-1.330;2023-02-15T13:31:34;22.58;;;20.23;;
48795;SDS011;34607;48.520;-1.330;2023-02-15T13:34:03;26.77;;;19.70;;
48795;SDS011;34607;48.520;-1.330;2023-02-15T13:36:40;22.60;;;20.08;;
48795;SDS011;34607;48.520;-1.330;2023-02-15T13:39:20;23.15;;;20.60;;
48795;SDS011;34607;48.520;-1.330;2023-02-15T13:41:56;22.20;;;18.30;;
48795;SDS011;34607;48.520;-1.330;2023-02-15T13:44:32;21.92;;;19.60;;
48795;SDS011;34607;48.520;-1.330;2023-02-15T13:47:18;20.63;;;18.52;;
48795;SDS011;34607;48.520;-1.330;2023-02-15T13:49:58;20.50;;;17.95;;
48795;SDS011;34607;48.520;-1.330;2023-02-15T13:52:48;23.08;;;19.30;;
48795;SDS011;34607;48.520;-1.330;2023-02-15T14:01:33;24.73;;;22.02;;
48795;SDS011;34607;48.520;-1.330;2023-02-15T14:04:21;22.63;;;20.13;;
48795;SDS011;34607;48.520;-1.330;2023-02-15T14:07:08;23.05;;;19.67;;
48795;SDS011;34607;48.520;-1.330;2023-02-15T14:09:57;22.50;;;20.15;;
48795;SDS011;34607;48.520;-1.330;2023-02-15T14:12:43;26.80;;;22.40;;
48795;SDS011;34607;48.520;-1.330;2023-02-15T14:15:26;32.78;;;26.08;;
48795;SDS011;34607;48.520;-1.330;2023-02-15T14:18:02;28.33;;;25.30;;
48795;SDS011;34607;48.520;-1.330;2023-02-15T14:20:44;23.92;;;21.42;;
48795;SDS011;34607;48.520;-1.330;2023-02-15T14:23:23;23.65;;;19.73;;
48795;SDS011;34607;48.520;-1.330;2023-02-15T14:26:02;21.40;;;19.08;;
48795;SDS011;34607;48.520;-1.330;2023-02-15T14:28:40;24.67;;;19.67;;
48795;SDS011;34607;48.520;-1.330;2023-02-15T14:31:12;22.80;;;19.45;;
48795;SDS011;34607;48.520;-1.330;2023-02-15T14:33:43;23.38;;;18.88;;
48795;SDS011;34607;48.520;-1.330;2023-02-15T14:36:20;24.45;;;20.27;;
48795;SDS011;34607;48.520;-1.330;2023-02-15T14:38:56;26.70;;;20.10;;
48795;SDS011;34607;48.520;-1.330;2023-02-15T14:41:32;25.50;;;19.58;;
48795;SDS011;34607;48.520;-1.330;2023-02-15T14:44:08;22.50;;;19.65;;
48795;SDS011;34607;48.520;-1.330;2023-02-15T14:46:45;22.90;;;19.35;;
48795;SDS011;34607;48.520;-1.330;2023-02-15T14:49:19;21.70;;;19.38;;
48795;SDS011;34607;48.520;-1.330;2023-02-15T14:54:52;21.05;;;18.85;;
48795;SDS011;34607;48.520;-1.330;2023-02-15T14:57:22;21.05;;;18.85;;
48795;SDS011;34607;48.520;-1.330;2023-02-15T14:59:53;23.30;;;19.95;;
48795;SDS011;34607;48.520;-1.330;2023-02-15T15:02:25;23.10;;;20.10;;
48795;SDS011;34607;48.520;-1.330;2023-02-15T15:04:56;23.25;;;19.38;;
48795;SDS011;34607;48.520;-1.330;2023-02-15T15:07:35;23.13;;;20.50;;
48795;SDS011;34607;48.520;-1.330;2023-02-15T15:10:06;26.17;;;20.92;;
48795;SDS011;34607;48.520;-1.330;2023-02-15T15:12:54;24.20;;;21.38;;
48795;SDS011;34607;48.520;-1.330;2023-02-15T15:15:33;25.60;;;22.48;;
48795;SDS011;34607;48.520;-1.330;2023-02-15T15:18:11;27.17;;;23.13;;
48795;SDS011;34607;48.520;-1.330;2023-02-15T15:23:59;27.05;;;23.23;;
48795;SDS011;34607;48.520;-1.330;2023-02-15T15:26:27;29.92;;;24.20;;
48795;SDS011;34607;48.520;-1.330;2023-02-15T15:28:59;31.35;;;23.13;;
48795;SDS011;34607;48.520;-1.330;2023-02-15T15:43:53;36.92;;;24.95;;
48795;SDS011;34607;48.520;-1.330;2023-02-15T15:46:49;28.90;;;22.90;;
48795;SDS011;34607;48.520;-1.330;2023-02-15T15:49:36;28.95;;;23.75;;
48795;SDS011;34607;48.520;-1.330;2023-02-15T15:52:08;26.27;;;23.42;;
48795;SDS011;34607;48.520;-1.330;2023-02-15T15:54:40;26.92;;;22.92;;
48795;SDS011;34607;48.520;-1.330;2023-02-15T15:57:14;26.35;;;23.17;;
48795;SDS011;34607;48.520;-1.330;2023-02-15T15:59:46;27.55;;;23.08;;
48795;SDS011;34607;48.520;-1.330;2023-02-15T16:02:16;29.33;;;23.65;;
48795;SDS011;34607;48.520;-1.330;2023-02-15T16:04:44;25.73;;;22.92;;
48795;SDS011;34607;48.520;-1.330;2023-02-15T16:07:14;26.33;;;22.48;;
48795;SDS011;34607;48.520;-1.330;2023-02-15T16:09:55;24.85;;;21.20;;
48795;SDS011;34607;48.520;-1.330;2023-02-15T16:12:27;23.65;;;21.20;;
48795;SDS011;34607;48.520;-1.330;2023-02-15T16:14:56;24.90;;;20.80;;
48795;SDS011;34607;48.520;-1.330;2023-02-15T16:17:27;23.80;;;20.27;;
48795;SDS011;34607;48.520;-1.330;2023-02-15T16:19:58;23.92;;;19.60;;
48795;SDS011;34607;48.520;-1.330;2023-02-15T16:22:29;26.30;;;20.98;;
48795;SDS011;34607;48.520;-1.330;2023-02-15T16:25:11;24.10;;;19.98;;
48795;SDS011;34607;48.520;-1.330;2023-02-15T16:27:54;24.85;;;19.92;;
48795;SDS011;34607;48.520;-1.330;2023-02-15T16:30:26;26.88;;;20.73;;
48795;SDS011;34607;48.520;-1.330;2023-02-15T16:32:55;23.67;;;21.13;;
48795;SDS011;34607;48.520;-1.330;2023-02-15T16:35:31;21.85;;;19.55;;
48795;SDS011;34607;48.520;-1.330;2023-02-15T16:37:59;24.23;;;19.95;;
48795;SDS011;34607;48.520;-1.330;2023-02-15T16:40:38;25.80;;;20.77;;
48795;SDS011;34607;48.520;-1.330;2023-02-15T16:43:13;23.45;;;20.63;;
48795;SDS011;34607;48.520;-1.330;2023-02-15T16:45:43;25.02;;;20.83;;
48795;SDS011;34607;48.520;-1.330;2023-02-15T16:48:12;27.42;;;20.70;;
48795;SDS011;34607;48.520;-1.330;2023-02-15T16:50:46;24.55;;;21.27;;
48795;SDS011;34607;48.520;-1.330;2023-02-15T16:53:17;24.27;;;19.83;;
48795;SDS011;34607;48.520;-1.330;2023-02-15T16:55:49;27.55;;;20.00;;
48795;SDS011;34607;48.520;-1.330;2023-02-15T16:58:20;25.00;;;20.65;;
48795;SDS011;34607;48.520;-1.330;2023-02-15T17:00:55;25.05;;;21.60;;
48795;SDS011;34607;48.520;-1.330;2023-02-15T17:03:24;22.45;;;19.42;;
48795;SDS011;34607;48.520;-1.330;2023-02-15T17:05:52;24.15;;;20.45;;
48795;SDS011;34607;48.520;-1.330;2023-02-15T17:08:24;27.10;;;20.58;;
48795;SDS011;34607;48.520;-1.330;2023-02-15T17:11:02;25.75;;;20.52;;
48795;SDS011;34607;48.520;-1.330;2023-02-15T17:13:37;27.77;;;21.55;;
48795;SDS011;34607;48.520;-1.330;2023-02-15T17:16:09;24.65;;;21.17;;
48795;SDS011;34607;48.520;-1.330;2023-02-15T17:18:52;28.50;;;21.50;;
48795;SDS011;34607;48.520;-1.330;2023-02-15T17:21:24;26.15;;;21.52;;
48795;SDS011;34607;48.520;-1.330;2023-02-15T17:23:57;23.13;;;20.63;;
48795;SDS011;34607;48.520;-1.330;2023-02-15T17:26:26;24.23;;;20.88;;
48795;SDS011;34607;48.520;-1.330;2023-02-15T17:28:59;23.92;;;20.58;;
48795;SDS011;34607;48.520;-1.330;2023-02-15T17:31:29;22.63;;;20.25;;
48795;SDS011;34607;48.520;-1.330;2023-02-15T17:33:58;30.83;;;22.83;;
48795;SDS011;34607;48.520;-1.330;2023-02-15T17:36:26;24.85;;;20.98;;
48795;SDS011;34607;48.520;-1.330;2023-02-15T17:39:05;26.52;;;22.10;;
48795;SDS011;34607;48.520;-1.330;2023-02-15T17:41:44;26.00;;;21.45;;
48795;SDS011;34607;48.520;-1.330;2023-02-15T17:44:14;30.15;;;22.73;;
48795;SDS011;34607;48.520;-1.330;2023-02-15T17:46:43;29.83;;;24.65;;
48795;SDS011;34607;48.520;-1.330;2023-02-15T17:49:12;30.33;;;24.00;;
48795;SDS011;34607;48.520;-1.330;2023-02-15T17:51:48;36.95;;;26.05;;
48795;SDS011;34607;48.520;-1.330;2023-02-15T17:54:15;31.88;;;26.42;;
48795;SDS011;34607;48.520;-1.330;2023-02-15T17:59:31;34.33;;;26.23;;
48795;SDS011;34607;48.520;-1.330;2023-02-15T18:01:58;31.50;;;26.48;;
48795;SDS011;34607;48.520;-1.330;2023-02-15T18:04:43;32.50;;;24.70;;
48795;SDS011;34607;48.520;-1.330;2023-02-15T18:07:28;32.25;;;25.95;;
48795;SDS011;34607;48.520;-1.330;2023-02-15T18:10:13;34.85;;;25.95;;
48795;SDS011;34607;48.520;-1.330;2023-02-15T18:12:59;40.47;;;29.27;;
48795;SDS011;34607;48.520;-1.330;2023-02-15T18:15:28;40.60;;;30.38;;
48795;SDS011;34607;48.520;-1.330;2023-02-15T18:17:55;31.50;;;28.13;;
48795;SDS011;34607;48.520;-1.330;2023-02-15T18:20:23;32.80;;;28.02;;
48795;SDS011;34607;48.520;-1.330;2023-02-15T18:22:53;36.15;;;26.30;;
48795;SDS011;34607;48.520;-1.330;2023-02-15T18:25:21;30.23;;;25.00;;
48795;SDS011;34607;48.520;-1.330;2023-02-15T18:27:49;33.47;;;26.40;;
48795;SDS011;34607;48.520;-1.330;2023-02-15T18:30:18;36.53;;;26.67;;
48795;SDS011;34607;48.520;-1.330;2023-02-15T18:32:52;27.88;;;24.58;;
48795;SDS011;34607;48.520;-1.330;2023-02-15T18:35:22;30.20;;;24.75;;
48795;SDS011;34607;48.520;-1.330;2023-02-15T18:37:52;30.30;;;24.55;;
48795;SDS011;34607;48.520;-1.330;2023-02-15T18:40:20;31.25;;;25.23;;
48795;SDS011;34607;48.520;-1.330;2023-02-15T18:42:50;27.52;;;24.25;;
48795;SDS011;34607;48.520;-1.330;2023-02-15T18:45:18;31.48;;;23.33;;
48795;SDS011;34607;48.520;-1.330;2023-02-15T18:47:47;32.50;;;25.08;;
48795;SDS011;34607;48.520;-1.330;2023-02-15T18:50:17;37.08;;;26.02;;
48795;SDS011;34607;48.520;-1.330;2023-02-15T18:52:46;32.05;;;24.55;;
48795;SDS011;34607;48.520;-1.330;2023-02-15T18:55:16;41.42;;;25.67;;
48795;SDS011;34607;48.520;-1.330;2023-02-15T18:57:45;33.78;;;25.38;;
48795;SDS011;34607;48.520;-1.330;2023-02-15T19:00:14;33.70;;;25.42;;
48795;SDS011;34607;48.520;-1.330;2023-02-15T19:02:43;33.92;;;24.77;;
48795;SDS011;34607;48.520;-1.330;2023-02-15T19:05:10;32.08;;;25.05;;
48795;SDS011;34607;48.520;-1.330;2023-02-15T19:07:39;32.63;;;24.95;;
48795;SDS011;34607;48.520;-1.330;2023-02-15T19:10:10;33.13;;;25.17;;
48795;SDS011;34607;48.520;-1.330;2023-02-15T19:12:41;32.60;;;25.33;;
48795;SDS011;34607;48.520;-1.330;2023-02-15T19:15:12;30.80;;;24.85;;
48795;SDS011;34607;48.520;-1.330;2023-02-15T19:17:41;31.42;;;24.98;;
48795;SDS011;34607;48.520;-1.330;2023-02-15T19:20:13;35.38;;;25.10;;
48795;SDS011;34607;48.520;-1.330;2023-02-15T19:22:43;33.35;;;27.77;;
48795;SDS011;34607;48.520;-1.330;2023-02-15T19:25:13;31.20;;;24.88;;
48795;SDS011;34607;48.520;-1.330;2023-02-15T19:27:44;29.88;;;24.67;;
48795;SDS011;34607;48.520;-1.330;2023-02-15T19:30:13;34.88;;;26.55;;
48795;SDS011;34607;48.520;-1.330;2023-02-15T19:32:43;35.13;;;26.73;;
48795;SDS011;34607;48.520;-1.330;2023-02-15T19:35:15;36.75;;;29.25;;
48795;SDS011;34607;48.520;-1.330;2023-02-15T19:37:46;33.65;;;25.95;;
48795;SDS011;34607;48.520;-1.330;2023-02-15T19:40:19;34.10;;;26.98;;
48795;SDS011;34607;48.520;-1.330;2023-02-15T19:42:48;31.48;;;25.50;;
48795;SDS011;34607;48.520;-1.330;2023-02-15T19:45:16;33.95;;;25.70;;
48795;SDS011;34607;48.520;-1.330;2023-02-15T19:47:45;34.45;;;26.10;;
48795;SDS011;34607;48.520;-1.330;2023-02-15T19:50:14;36.15;;;25.95;;
48795;SDS011;34607;48.520;-1.330;2023-02-15T19:52:42;36.38;;;27.05;;
48795;SDS011;34607;48.520;-1.330;2023-02-15T19:55:19;41.17;;;27.05;;
48795;SDS011;34607;48.520;-1.330;2023-02-15T19:57:49;34.13;;;25.33;;
48795;SDS011;34607;48.520;-1.330;2023-02-15T20:00:17;32.67;;;25.65;;
48795;SDS011;34607;48.520;-1.330;2023-02-15T20:02:46;34.78;;;27.13;;
48795;SDS011;34607;48.520;-1.330;2023-02-15T20:05:14;33.85;;;27.63;;
48795;SDS011;34607;48.520;-1.330;2023-02-15T20:07:41;32.25;;;23.65;;
48795;SDS011;34607;48.520;-1.330;2023-02-15T20:10:14;37.05;;;24.90;;
48795;SDS011;34607;48.520;-1.330;2023-02-15T20:12:45;30.65;;;25.27;;
48795;SDS011;34607;48.520;-1.330;2023-02-15T20:15:16;32.15;;;24.73;;
48795;SDS011;34607;48.520;-1.330;2023-02-15T20:17:47;28.67;;;24.67;;
48795;SDS011;34607;48.520;-1.330;2023-02-15T20:20:15;32.10;;;24.33;;
48795;SDS011;34607;48.520;-1.330;2023-02-15T20:22:43;28.60;;;23.27;;
48795;SDS011;34607;48.520;-1.330;2023-02-15T20:25:14;34.72;;;25.13;;
48795;SDS011;34607;48.520;-1.330;2023-02-15T20:27:46;31.15;;;24.58;;
48795;SDS011;34607;48.520;-1.330;2023-02-15T20:30:14;32.55;;;24.67;;
48795;SDS011;34607;48.520;-1.330;2023-02-15T20:32:43;32.13;;;24.85;;
48795;SDS011;34607;48.520;-1.330;2023-02-15T20:35:11;33.90;;;24.30;;
48795;SDS011;34607;48.520;-1.330;2023-02-15T20:37:40;29.88;;;23.83;;
48795;SDS011;34607;48.520;-1.330;2023-02-15T20:40:16;32.97;;;25.02;;
48795;SDS011;34607;48.520;-1.330;2023-02-15T20:42:47;36.88;;;25.55;;
48795;SDS011;34607;48.520;-1.330;2023-02-15T20:45:15;30.80;;;24.85;;
48795;SDS011;34607;48.520;-1.330;2023-02-15T20:47:44;33.95;;;25.35;;
48795;SDS011;34607;48.520;-1.330;2023-02-15T20:50:15;36.03;;;25.15;;
48795;SDS011;34607;48.520;-1.330;2023-02-15T20:52:43;31.20;;;23.85;;
48795;SDS011;34607;48.520;-1.330;2023-02-15T20:55:12;30.85;;;23.20;;
48795;SDS011;34607;48.520;-1.330;2023-02-15T20:57:41;33.72;;;23.52;;
48795;SDS011;34607;48.520;-1.330;2023-02-15T21:00:13;33.38;;;22.30;;
48795;SDS011;34607;48.520;-1.330;2023-02-15T21:02:43;31.27;;;21.27;;
48795;SDS011;34607;48.520;-1.330;2023-02-15T21:05:13;30.88;;;22.92;;
48795;SDS011;34607;48.520;-1.330;2023-02-15T21:07:41;29.33;;;21.60;;
48795;SDS011;34607;48.520;-1.330;2023-02-15T21:10:09;26.15;;;21.58;;
48795;SDS011;34607;48.520;-1.330;2023-02-15T21:12:40;29.20;;;22.27;;
48795;SDS011;34607;48.520;-1.330;2023-02-15T21:15:15;28.02;;;20.25;;
48795;SDS011;34607;48.520;-1.330;2023-02-15T21:17:52;29.88;;;20.33;;
48795;SDS011;34607;48.520;-1.330;2023-02-15T21:20:19;24.02;;;19.08;;
48795;SDS011;34607;48.520;-1.330;2023-02-15T21:22:47;27.83;;;19.42;;
48795;SDS011;34607;48.520;-1.330;2023-02-15T21:25:14;29.42;;;19.08;;
48795;SDS011;34607;48.520;-1.330;2023-02-15T21:27:44;26.50;;;19.27;;
48795;SDS011;34607;48.520;-1.330;2023-02-15T21:30:13;31.30;;;20.13;;
48795;SDS011;34607;48.520;-1.330;2023-02-15T21:32:42;29.90;;;19.83;;
48795;SDS011;34607;48.520;-1.330;2023-02-15T21:35:10;30.58;;;20.83;;
